Hlavní strana
METAR-TAF:

METAR-TAF

Letiště :

Andøya, Norsko

zeměpisná šířka: 69-18N, zeměpisná délka: 016-09E, výška: 1 m

Aktuální stav počasí

Zpráva byla vytvořena před 14 minutami, v 15:20 UTC
Jižní vítr 7 kt
Teplota 12°C
Vlhkost vzduchu 100%
Tlak 1008 hPa
Viditelnost 10 km a více
Skoro jasno ve výšce 600 ft
Zataženo ve výšce 4300 ft
slabý déšť

METAR: ENAN 251520Z 18007KT 9999 -RA FEW006 OVC043 12/12 Q1008

Čas: 17:34 (15:34 UTC)

Předpověď počasí

Předpověď platná od 25 v 12 UTC do 26 v 12 UTC
Jižní vítr 12 kt
Viditelnost 10 km a více
Skoro jasno ve výšce 400 ft
Oblačno až skoro zataženo ve výšce 3000 ft
Dočasný
od 25 v 12 UTC do 26 v 12 UTC
Oblačno až skoro zataženo ve výšce 800 ft
dešťové přeháňky
Dočasný
od 25 v 12 UTC do 25 v 18 UTC
Oblačno až skoro zataženo ve výšce 2000 ft, Cumulonimbus.
Změna
od 25 v 20 UTC do 25 v 22 UTC
Západojihozápadní vítr 15 kt

TAF: ENAN 2512/2612 18012KT 9999 FEW004 BKN030 TEMPO 2512/2612 SHRA BKN008 TEMPO 2512/2518 BKN020CB BECMG 2520/2522 25015KT

Stav a předpovědi počasí z více než 4 000 letišť (zprávy METAR a TAF).

Červené a žluté tečky na mapě představují dostupné meteorologické stanice.

Když kurzor umístíte na tečku, zobrazí se název stanice.

Pak kliknutím zobrazíte stav a předpověď počasí.

Chcete-li změnit mapu, kliknutím na zelené tlačítko se znaménkem +mapu přiblížíte, kliknutím na zelené tlačítko se znaménkem – mapu oddálíte a kliknutím na zelené šipky přejdete na sousední mapy.


METAR-TAF: